createdAt,value
2018-05-10T00:00:41.108Z,19.49
2018-05-10T00:01:41.130Z,19.49
2018-05-10T00:02:41.203Z,19.5
2018-05-10T00:03:41.371Z,19.5
2018-05-10T00:04:41.274Z,19.49
2018-05-10T00:05:41.341Z,19.49
2018-05-10T00:06:41.115Z,19.5
2018-05-10T00:07:41.197Z,19.47
2018-05-10T00:08:41.153Z,19.47
2018-05-10T00:09:41.149Z,19.47
2018-05-10T00:10:41.324Z,19.49
2018-05-10T00:11:41.061Z,19.46
2018-05-10T00:12:41.230Z,19.49
2018-05-10T00:13:41.141Z,19.49
2018-05-10T00:14:41.246Z,19.46
2018-05-10T00:15:41.283Z,19.46
2018-05-10T00:16:41.224Z,19.47
2018-05-10T00:17:41.160Z,19.46
2018-05-10T00:18:41.412Z,19.49
2018-05-10T00:19:41.236Z,19.47
2018-05-10T00:20:41.171Z,19.47
2018-05-10T00:21:41.550Z,19.49
2018-05-10T00:22:51.118Z,19.47
2018-05-10T00:23:41.391Z,19.49
2018-05-10T00:24:41.215Z,19.46
2018-05-10T00:25:41.245Z,19.47
2018-05-10T00:26:41.098Z,19.47
2018-05-10T00:27:41.079Z,19.46
2018-05-10T00:28:41.324Z,19.45
2018-05-10T00:29:41.291Z,19.47
2018-05-10T00:30:41.156Z,19.46
2018-05-10T00:31:41.287Z,19.46
2018-05-10T00:32:41.150Z,19.47
2018-05-10T00:33:41.064Z,19.49
2018-05-10T00:34:41.279Z,19.46
2018-05-10T00:35:41.170Z,19.49
2018-05-10T00:36:41.124Z,19.47
2018-05-10T00:37:41.394Z,19.45
2018-05-10T00:38:41.201Z,19.47
2018-05-10T00:39:41.122Z,19.47
2018-05-10T00:40:41.221Z,19.42
2018-05-10T00:41:41.118Z,19.45
2018-05-10T00:42:41.196Z,19.47
2018-05-10T00:43:41.127Z,19.46
2018-05-10T00:44:41.214Z,19.47
2018-05-10T00:45:41.309Z,19.45
2018-05-10T00:46:41.304Z,19.43
2018-05-10T00:47:41.185Z,19.46
2018-05-10T00:48:41.278Z,19.46
2018-05-10T00:49:41.001Z,19.47
2018-05-10T00:50:41.113Z,19.47
2018-05-10T00:51:41.143Z,19.43
2018-05-10T00:52:41.130Z,19.46
2018-05-10T00:53:41.312Z,19.45
2018-05-10T00:54:41.140Z,19.46
2018-05-10T00:55:41.089Z,19.45
2018-05-10T00:56:41.309Z,19.46
2018-05-10T00:57:41.110Z,19.45
2018-05-10T00:58:41.198Z,19.49
2018-05-10T00:59:41.173Z,19.47
2018-05-10T01:00:41.111Z,19.46
2018-05-10T01:01:41.037Z,19.46
2018-05-10T01:02:41.310Z,19.45
2018-05-10T01:03:41.100Z,19.45
2018-05-10T01:04:41.542Z,19.46
2018-05-10T01:05:41.223Z,19.43
2018-05-10T01:06:41.170Z,19.45
2018-05-10T01:07:41.089Z,19.46
2018-05-10T01:08:41.349Z,19.45
2018-05-10T01:09:41.194Z,19.46
2018-05-10T01:10:41.251Z,19.46
2018-05-10T01:11:41.159Z,19.46
2018-05-10T01:12:41.027Z,19.47
2018-05-10T01:13:41.191Z,19.45
2018-05-10T01:14:41.200Z,19.43
2018-05-10T01:15:41.308Z,19.45
2018-05-10T01:16:41.353Z,19.45
2018-05-10T01:17:41.083Z,19.46
2018-05-10T01:18:41.327Z,19.45
2018-05-10T01:19:41.295Z,19.46
2018-05-10T01:20:41.133Z,19.43
2018-05-10T01:21:41.111Z,19.43
2018-05-10T01:22:41.306Z,19.43
2018-05-10T01:23:41.048Z,19.43
2018-05-10T01:24:41.278Z,19.43
2018-05-10T01:25:41.096Z,19.45
2018-05-10T01:26:41.133Z,19.45
2018-05-10T01:27:41.245Z,19.46
2018-05-10T01:28:41.218Z,19.45
2018-05-10T01:29:41.138Z,19.46
2018-05-10T01:30:41.236Z,19.45
2018-05-10T01:31:41.226Z,19.43
2018-05-10T01:32:41.247Z,19.46
2018-05-10T01:33:41.374Z,19.43
2018-05-10T01:34:41.063Z,19.42
2018-05-10T01:35:41.275Z,19.47
2018-05-10T01:36:41.133Z,19.46
2018-05-10T01:37:41.306Z,19.43
2018-05-10T01:38:41.204Z,19.43
2018-05-10T01:39:41.330Z,19.45
2018-05-10T01:40:41.121Z,19.43
2018-05-10T01:41:41.249Z,19.45
2018-05-10T01:42:41.263Z,19.46
2018-05-10T01:43:41.403Z,19.43
2018-05-10T01:44:41.174Z,19.46
2018-05-10T01:45:41.122Z,19.43
2018-05-10T01:46:41.344Z,19.43
2018-05-10T01:47:41.364Z,19.43
2018-05-10T01:48:41.211Z,19.43
2018-05-10T01:49:41.158Z,19.42
2018-05-10T01:50:41.297Z,19.45
2018-05-10T01:51:41.291Z,19.43
2018-05-10T01:52:41.025Z,19.43
2018-05-10T01:53:41.177Z,19.45
2018-05-10T01:54:41.140Z,19.43
2018-05-10T01:55:41.271Z,19.43
2018-05-10T01:56:41.087Z,19.43
2018-05-10T01:57:41.261Z,19.45
2018-05-10T01:58:41.349Z,19.42
2018-05-10T01:59:41.216Z,19.46
2018-05-10T02:00:41.161Z,19.43
2018-05-10T02:01:41.121Z,19.42
2018-05-10T02:02:41.262Z,19.43
2018-05-10T02:03:41.283Z,19.39
2018-05-10T02:04:41.201Z,19.45
2018-05-10T02:05:41.257Z,19.43
2018-05-10T02:06:41.204Z,19.45
2018-05-10T02:07:41.066Z,19.45
2018-05-10T02:08:41.198Z,19.45
2018-05-10T02:09:41.085Z,19.42
2018-05-10T02:10:41.074Z,19.42
2018-05-10T02:11:41.198Z,19.43
2018-05-10T02:12:41.223Z,19.42
2018-05-10T02:13:41.246Z,19.45
2018-05-10T02:14:41.610Z,19.46
2018-05-10T02:15:41.209Z,19.46
2018-05-10T02:16:41.242Z,19.46
2018-05-10T02:17:41.069Z,19.43
2018-05-10T02:18:41.032Z,19.43
2018-05-10T02:19:41.270Z,19.46
2018-05-10T02:20:41.225Z,19.43
2018-05-10T02:21:41.273Z,19.43
2018-05-10T02:22:41.252Z,19.43
2018-05-10T02:23:41.129Z,19.45
2018-05-10T02:24:41.145Z,19.4
2018-05-10T02:25:41.192Z,19.42
2018-05-10T02:26:40.984Z,19.45
2018-05-10T02:27:41.171Z,19.43
2018-05-10T02:28:41.114Z,19.42
2018-05-10T02:29:41.680Z,19.43
2018-05-10T02:30:41.198Z,19.43
2018-05-10T02:31:41.300Z,19.43
2018-05-10T02:32:41.185Z,19.43
2018-05-10T02:33:41.156Z,19.42
2018-05-10T02:34:41.221Z,19.42
2018-05-10T02:35:41.270Z,19.43
2018-05-10T02:36:41.280Z,19.45
2018-05-10T02:37:41.121Z,19.42
2018-05-10T02:38:41.061Z,19.43
2018-05-10T02:39:41.349Z,19.43
2018-05-10T02:41:00.546Z,19.42
2018-05-10T02:41:41.112Z,19.45
2018-05-10T02:42:41.213Z,19.43
2018-05-10T02:43:41.097Z,19.42
2018-05-10T02:44:41.304Z,19.43
2018-05-10T02:45:41.039Z,19.4
2018-05-10T02:46:41.150Z,19.43
2018-05-10T02:47:41.261Z,19.43
2018-05-10T02:48:41.096Z,19.42
2018-05-10T02:49:41.319Z,19.43
2018-05-10T02:50:41.125Z,19.43
2018-05-10T02:51:41.103Z,19.4
2018-05-10T02:52:41.242Z,19.42
2018-05-10T02:53:41.174Z,19.42
2018-05-10T02:54:41.353Z,19.43
2018-05-10T02:55:41.183Z,19.43
2018-05-10T02:56:41.273Z,19.42
2018-05-10T02:57:41.288Z,19.4
2018-05-10T02:58:41.176Z,19.45
2018-05-10T02:59:41.069Z,19.45
2018-05-10T03:00:41.250Z,19.39
2018-05-10T03:01:41.630Z,19.42
2018-05-10T03:02:41.268Z,19.43
2018-05-10T03:03:41.127Z,19.43
2018-05-10T03:04:41.254Z,19.43
2018-05-10T03:05:41.136Z,19.45
2018-05-10T03:06:41.285Z,19.43
2018-05-10T03:07:41.180Z,19.43
2018-05-10T03:08:41.008Z,19.45
2018-05-10T03:09:41.147Z,19.42
2018-05-10T03:10:41.178Z,19.42
2018-05-10T03:11:41.042Z,19.42
2018-05-10T03:12:41.210Z,19.42
2018-05-10T03:13:41.061Z,19.4
2018-05-10T03:14:41.184Z,19.4
2018-05-10T03:15:41.196Z,19.42
2018-05-10T03:16:41.243Z,19.4
2018-05-10T03:17:41.090Z,19.4
2018-05-10T03:18:41.177Z,19.4
2018-05-10T03:19:41.023Z,19.42
2018-05-10T03:20:41.030Z,19.43
2018-05-10T03:21:41.104Z,19.4
2018-05-10T03:22:40.967Z,19.4
2018-05-10T03:23:41.111Z,19.43
2018-05-10T03:24:41.127Z,19.42
2018-05-10T03:25:41.176Z,19.4
2018-05-10T03:26:41.109Z,19.43
2018-05-10T03:27:41.021Z,19.42
2018-05-10T03:28:41.082Z,19.42
2018-05-10T03:29:41.326Z,19.43
2018-05-10T03:30:40.993Z,19.4
2018-05-10T03:31:41.253Z,19.39
2018-05-10T03:32:41.128Z,19.45
2018-05-10T03:33:41.319Z,19.45
2018-05-10T03:34:41.105Z,19.4
2018-05-10T03:35:40.998Z,19.45
2018-05-10T03:36:41.257Z,19.39
2018-05-10T03:37:41.118Z,19.42
2018-05-10T03:38:41.264Z,19.42
2018-05-10T03:39:41.229Z,19.39
2018-05-10T03:40:41.133Z,19.42
2018-05-10T03:41:40.983Z,19.4
2018-05-10T03:42:41.165Z,19.4
2018-05-10T03:43:41.258Z,19.4
2018-05-10T03:44:41.245Z,19.42
2018-05-10T03:45:41.060Z,19.4
2018-05-10T03:46:41.087Z,19.39
2018-05-10T03:47:41.287Z,19.4
2018-05-10T03:48:41.000Z,19.4
2018-05-10T03:49:41.241Z,19.42
2018-05-10T03:50:41.220Z,19.46
2018-05-10T03:51:41.211Z,19.4
2018-05-10T03:52:41.111Z,19.4
2018-05-10T03:53:41.060Z,19.42
2018-05-10T03:54:41.178Z,19.4
2018-05-10T03:55:41.159Z,19.39
2018-05-10T03:56:40.984Z,19.42
2018-05-10T03:57:41.272Z,19.4
2018-05-10T03:58:41.085Z,19.43
2018-05-10T03:59:41.121Z,19.42
2018-05-10T04:00:41.020Z,19.4
2018-05-10T04:01:41.281Z,19.4
2018-05-10T04:02:41.066Z,19.4
2018-05-10T04:03:41.059Z,19.42
2018-05-10T04:04:41.133Z,19.4
2018-05-10T04:05:41.260Z,19.43
2018-05-10T04:06:41.117Z,19.4
2018-05-10T04:07:41.137Z,19.39
2018-05-10T04:08:41.185Z,19.43
2018-05-10T04:09:41.256Z,19.42
2018-05-10T04:10:41.131Z,19.39
2018-05-10T04:11:41.132Z,19.42
2018-05-10T04:12:41.142Z,19.4
2018-05-10T04:13:41.120Z,19.39
2018-05-10T04:14:41.071Z,19.43
2018-05-10T04:15:41.119Z,19.42
2018-05-10T04:16:41.108Z,19.42
2018-05-10T04:17:41.046Z,19.43
2018-05-10T04:18:40.981Z,19.43
2018-05-10T04:19:41.069Z,19.4
2018-05-10T04:20:41.147Z,19.4
2018-05-10T04:21:41.027Z,19.4
2018-05-10T04:22:41.059Z,19.4
2018-05-10T04:23:41.249Z,19.42
2018-05-10T04:24:41.069Z,19.4
2018-05-10T04:25:40.996Z,19.42
2018-05-10T04:26:41.327Z,19.4
2018-05-10T04:27:41.039Z,19.4
2018-05-10T04:28:41.176Z,19.4
2018-05-10T04:29:41.083Z,19.4
2018-05-10T04:30:41.142Z,19.39
2018-05-10T04:31:41.085Z,19.42
2018-05-10T04:32:41.181Z,19.43
2018-05-10T04:33:41.065Z,19.42
2018-05-10T04:34:41.195Z,19.4
2018-05-10T04:35:41.870Z,19.45
2018-05-10T04:36:40.993Z,19.42
2018-05-10T04:37:41.187Z,19.4
2018-05-10T04:38:41.009Z,19.43
2018-05-10T04:39:41.051Z,19.42
2018-05-10T04:40:41.171Z,19.43
2018-05-10T04:41:41.044Z,19.42
2018-05-10T04:42:41.096Z,19.43
2018-05-10T04:43:41.041Z,19.42
2018-05-10T04:44:41.245Z,19.45
2018-05-10T04:45:41.142Z,19.42
2018-05-10T04:46:40.964Z,19.42
2018-05-10T04:47:40.949Z,19.42
2018-05-10T04:48:41.270Z,19.42
2018-05-10T04:49:41.248Z,19.4
2018-05-10T04:50:40.978Z,19.42
2018-05-10T04:51:41.065Z,19.42
2018-05-10T04:52:41.208Z,19.4
2018-05-10T04:53:41.165Z,19.42
2018-05-10T04:54:41.476Z,19.4
2018-05-10T04:55:41.035Z,19.42
2018-05-10T04:56:41.198Z,19.4
2018-05-10T04:57:41.140Z,19.42
2018-05-10T04:58:41.013Z,19.4
2018-05-10T04:59:41.118Z,19.46
2018-05-10T05:00:41.031Z,19.4
2018-05-10T05:01:40.997Z,19.43
2018-05-10T05:02:41.134Z,19.4
2018-05-10T05:03:41.032Z,19.43
2018-05-10T05:04:41.085Z,19.42
2018-05-10T05:05:41.230Z,19.43
2018-05-10T05:06:41.127Z,19.43
2018-05-10T05:07:41.134Z,19.43
2018-05-10T05:08:41.729Z,19.4
2018-05-10T05:09:41.027Z,19.4
2018-05-10T05:10:41.154Z,19.4
2018-05-10T05:11:41.092Z,19.42
2018-05-10T05:12:41.148Z,19.42
2018-05-10T05:13:41.029Z,19.42
2018-05-10T05:14:40.995Z,19.42
2018-05-10T05:15:41.028Z,19.42
2018-05-10T05:16:41.209Z,19.42
2018-05-10T05:17:41.215Z,19.42
2018-05-10T05:18:41.131Z,19.4
2018-05-10T05:19:41.138Z,19.4
2018-05-10T05:20:41.018Z,19.42
2018-05-10T05:21:41.154Z,19.43
2018-05-10T05:22:41.218Z,19.42
2018-05-10T05:23:41.250Z,19.4
2018-05-10T05:24:41.147Z,19.42
2018-05-10T05:25:41.020Z,19.42
2018-05-10T05:26:41.226Z,19.4
2018-05-10T05:27:41.031Z,19.42
2018-05-10T05:28:41.155Z,19.42
2018-05-10T05:29:41.050Z,19.42
2018-05-10T05:30:41.063Z,19.42
2018-05-10T05:31:40.976Z,19.4
2018-05-10T05:32:41.478Z,19.42
2018-05-10T05:33:41.163Z,19.4
2018-05-10T05:34:41.182Z,19.39
2018-05-10T05:35:41.307Z,19.43
2018-05-10T05:36:41.792Z,19.43
2018-05-10T05:37:41.018Z,19.45
2018-05-10T05:38:41.217Z,19.45
2018-05-10T05:39:41.188Z,19.4
2018-05-10T05:40:41.163Z,19.45
2018-05-10T05:41:41.165Z,19.45
2018-05-10T05:42:40.999Z,19.43
2018-05-10T05:43:41.027Z,19.4
2018-05-10T05:44:41.159Z,19.43
2018-05-10T05:45:41.245Z,19.42
2018-05-10T05:46:41.196Z,19.43
2018-05-10T05:47:41.331Z,19.43
2018-05-10T05:48:41.037Z,19.45
2018-05-10T05:49:41.083Z,19.42
2018-05-10T05:50:40.981Z,19.43
2018-05-10T05:51:41.083Z,19.43
2018-05-10T05:52:41.180Z,19.42
2018-05-10T05:53:40.916Z,19.45
2018-05-10T05:54:40.928Z,19.45
2018-05-10T05:55:41.085Z,19.43
2018-05-10T05:56:41.064Z,19.43
2018-05-10T05:57:41.100Z,19.42
2018-05-10T05:58:41.107Z,19.43
2018-05-10T05:59:40.998Z,19.42
2018-05-10T06:00:40.964Z,19.43
2018-05-10T06:01:41.178Z,19.42
2018-05-10T06:02:41.281Z,19.43
2018-05-10T06:03:41.168Z,19.42
2018-05-10T06:04:40.992Z,19.42
2018-05-10T06:05:41.337Z,19.46
2018-05-10T06:06:41.176Z,19.43
2018-05-10T06:07:40.985Z,19.42
2018-05-10T06:08:41.622Z,19.45
2018-05-10T06:09:41.044Z,19.43
2018-05-10T06:10:41.022Z,19.42
2018-05-10T06:11:41.146Z,19.45
2018-05-10T06:12:41.037Z,19.45
2018-05-10T06:13:41.479Z,19.42
2018-05-10T06:14:41.064Z,19.46
2018-05-10T06:15:41.565Z,19.45
2018-05-10T06:16:41.011Z,19.43
2018-05-10T06:17:41.054Z,19.45
2018-05-10T06:18:41.274Z,19.45
2018-05-10T06:19:41.173Z,19.45
2018-05-10T06:20:41.357Z,19.45
2018-05-10T06:21:41.124Z,19.43
2018-05-10T06:22:41.118Z,19.42
2018-05-10T06:23:41.356Z,19.45
2018-05-10T06:24:41.125Z,19.45
2018-05-10T06:25:41.110Z,19.45
2018-05-10T06:26:40.921Z,19.45
2018-05-10T06:27:41.083Z,19.45
2018-05-10T06:28:41.200Z,19.45
2018-05-10T06:29:41.065Z,19.45
2018-05-10T06:30:41.115Z,19.43
2018-05-10T06:31:41.256Z,19.47
2018-05-10T06:32:41.187Z,19.45
2018-05-10T06:33:41.069Z,19.45
2018-05-10T06:34:41.189Z,19.46
2018-05-10T06:35:41.081Z,19.43
2018-05-10T06:36:41.044Z,19.46
2018-05-10T06:37:40.931Z,19.46
2018-05-10T06:38:40.979Z,19.46
2018-05-10T06:39:41.066Z,19.45
2018-05-10T06:40:41.167Z,19.45
2018-05-10T06:41:41.151Z,19.45
2018-05-10T06:42:41.125Z,19.45
2018-05-10T06:43:41.153Z,19.43
2018-05-10T06:44:40.966Z,19.46
2018-05-10T06:45:41.098Z,19.43
2018-05-10T06:46:41.186Z,19.43
2018-05-10T06:47:41.011Z,19.47
2018-05-10T06:48:40.941Z,19.45
2018-05-10T06:49:41.048Z,19.43
2018-05-10T06:50:41.207Z,19.45
2018-05-10T06:51:41.200Z,19.46
2018-05-10T06:52:40.983Z,19.4
2018-05-10T06:53:41.133Z,19.43
2018-05-10T06:54:41.632Z,19.45
2018-05-10T06:55:40.981Z,19.45
2018-05-10T06:56:41.105Z,19.46
2018-05-10T06:57:41.000Z,19.43
2018-05-10T06:58:41.292Z,19.43
2018-05-10T06:59:50.973Z,19.45
2018-05-10T07:00:40.977Z,19.45
2018-05-10T07:01:41.160Z,19.45
2018-05-10T07:02:41.253Z,19.45
2018-05-10T07:03:41.203Z,19.46
2018-05-10T07:04:40.946Z,19.45
2018-05-10T07:05:41.156Z,19.47
2018-05-10T07:06:40.962Z,19.43
2018-05-10T07:07:41.204Z,19.45
2018-05-10T07:08:40.974Z,19.45
2018-05-10T07:09:42.395Z,19.43
2018-05-10T07:10:41.529Z,19.42
2018-05-10T07:11:40.915Z,19.46
2018-05-10T07:12:41.243Z,19.45
2018-05-10T07:13:41.037Z,19.43
2018-05-10T07:14:41.098Z,19.45
2018-05-10T07:15:41.381Z,19.45
2018-05-10T07:16:41.006Z,19.45
2018-05-10T07:17:41.110Z,19.46
2018-05-10T07:18:41.031Z,19.43
2018-05-10T07:19:41.161Z,19.43
2018-05-10T07:20:41.258Z,19.45
2018-05-10T07:21:41.109Z,19.43
2018-05-10T07:22:40.989Z,19.46
2018-05-10T07:23:41.103Z,19.45
2018-05-10T07:24:41.166Z,19.45
2018-05-10T07:25:41.168Z,19.42
2018-05-10T07:26:41.151Z,19.43
2018-05-10T07:27:40.876Z,19.42
2018-05-10T07:28:41.125Z,19.43
2018-05-10T07:29:41.138Z,19.46
2018-05-10T07:30:41.064Z,19.43
2018-05-10T07:31:41.008Z,19.45
2018-05-10T07:32:41.079Z,19.46
2018-05-10T07:33:41.199Z,19.45
2018-05-10T07:34:41.125Z,19.45
2018-05-10T07:35:41.066Z,19.46
2018-05-10T07:36:41.128Z,19.45
2018-05-10T07:37:41.195Z,19.43
2018-05-10T07:38:40.950Z,19.45
2018-05-10T07:39:40.923Z,19.45
2018-05-10T07:40:41.122Z,19.43
2018-05-10T07:41:41.150Z,19.45
2018-05-10T07:42:40.977Z,19.45
2018-05-10T07:43:41.008Z,19.45
2018-05-10T07:44:40.968Z,19.45
2018-05-10T07:45:40.970Z,19.43
2018-05-10T07:46:41.145Z,19.45
2018-05-10T07:47:40.928Z,19.46
2018-05-10T07:48:41.091Z,19.49
2018-05-10T07:49:40.936Z,19.5
2018-05-10T07:50:40.982Z,19.46
2018-05-10T07:51:41.006Z,19.47
2018-05-10T07:52:41.099Z,19.46
2018-05-10T07:53:41.075Z,19.49
2018-05-10T07:54:41.188Z,19.49
2018-05-10T07:55:41.026Z,19.49
2018-05-10T07:56:40.869Z,19.52
2018-05-10T07:57:40.980Z,19.53
2018-05-10T07:58:41.103Z,19.58
2018-05-10T07:59:41.066Z,19.57
2018-05-10T08:00:41.099Z,19.58
2018-05-10T08:01:41.165Z,19.57
2018-05-10T08:02:41.011Z,19.6
2018-05-10T08:03:41.147Z,19.61
2018-05-10T08:04:41.075Z,19.61
2018-05-10T08:05:41.174Z,19.65
2018-05-10T08:06:41.090Z,19.64
2018-05-10T08:07:40.893Z,19.67
2018-05-10T08:08:41.025Z,19.68
2018-05-10T08:09:41.057Z,19.68
2018-05-10T08:10:41.172Z,19.67
2018-05-10T08:11:40.998Z,19.64
2018-05-10T08:12:41.103Z,19.64
2018-05-10T08:13:41.034Z,19.63
2018-05-10T08:14:41.147Z,19.67
2018-05-10T08:15:41.041Z,19.64
2018-05-10T08:16:41.189Z,19.63
2018-05-10T08:17:41.046Z,19.63
2018-05-10T08:18:41.031Z,19.63
2018-05-10T08:19:41.098Z,19.63
2018-05-10T08:20:41.171Z,19.67
2018-05-10T08:21:41.171Z,19.64
2018-05-10T08:22:41.063Z,19.64
2018-05-10T08:23:41.029Z,19.65
2018-05-10T08:24:41.247Z,19.63
2018-05-10T08:25:40.963Z,19.63
2018-05-10T08:26:41.127Z,19.65
2018-05-10T08:27:41.056Z,19.64
2018-05-10T08:28:41.225Z,19.63
2018-05-10T08:29:41.282Z,19.64
2018-05-10T08:30:41.220Z,19.64
2018-05-10T08:31:41.057Z,19.64
2018-05-10T08:32:40.989Z,19.65
2018-05-10T08:33:41.162Z,19.67
2018-05-10T08:34:41.036Z,19.65
2018-05-10T08:35:41.350Z,19.7
2018-05-10T08:36:41.755Z,19.7
2018-05-10T08:37:40.936Z,19.7
2018-05-10T08:38:41.106Z,19.67
2018-05-10T08:39:41.193Z,19.68
2018-05-10T08:40:40.997Z,19.73
2018-05-10T08:41:41.051Z,19.67
2018-05-10T08:42:41.086Z,19.63
2018-05-10T08:43:41.141Z,19.67
2018-05-10T08:44:41.068Z,19.63
2018-05-10T08:45:40.958Z,19.64
2018-05-10T08:46:41.138Z,19.65
2018-05-10T08:47:41.014Z,19.6
2018-05-10T08:48:41.233Z,19.61
2018-05-10T08:49:41.008Z,19.63
2018-05-10T08:50:41.120Z,19.61
2018-05-10T08:51:40.935Z,19.6
2018-05-10T08:52:41.183Z,19.58
2018-05-10T08:53:41.054Z,19.6
2018-05-10T08:54:41.121Z,19.6
2018-05-10T08:55:41.095Z,19.6
2018-05-10T08:56:40.933Z,19.6
2018-05-10T08:57:40.993Z,19.58
2018-05-10T08:59:00.978Z,19.57
2018-05-10T08:59:41.127Z,19.56
2018-05-10T09:00:41.092Z,19.57
2018-05-10T09:01:41.131Z,19.58
2018-05-10T09:02:40.949Z,19.54
2018-05-10T09:03:40.946Z,19.54
2018-05-10T09:04:41.330Z,19.58
2018-05-10T09:05:41.012Z,19.56
2018-05-10T09:06:41.256Z,19.6
2018-05-10T09:07:40.940Z,19.64
2018-05-10T09:08:41.059Z,19.63
2018-05-10T09:09:41.097Z,19.63
2018-05-10T09:10:41.108Z,19.64
2018-05-10T09:11:41.071Z,19.6
2018-05-10T09:12:40.887Z,19.61
2018-05-10T09:13:40.990Z,19.63
2018-05-10T09:14:41.097Z,19.6
2018-05-10T09:15:41.003Z,19.61
2018-05-10T09:16:41.200Z,19.61
2018-05-10T09:17:41.090Z,19.61
2018-05-10T09:18:41.086Z,19.63
2018-05-10T09:19:41.189Z,19.65
2018-05-10T09:20:41.171Z,19.63
2018-05-10T09:21:41.310Z,19.67
2018-05-10T09:22:41.192Z,19.67
2018-05-10T09:23:41.018Z,19.63
2018-05-10T09:24:41.245Z,19.65
2018-05-10T09:25:41.127Z,19.68
2018-05-10T09:27:10.996Z,19.67
2018-05-10T09:27:41.139Z,19.7
2018-05-10T09:28:41.252Z,19.71
2018-05-10T09:29:41.071Z,19.67
2018-05-10T09:30:41.206Z,19.7
2018-05-10T09:31:41.811Z,19.75
2018-05-10T09:32:41.001Z,19.71
2018-05-10T09:33:40.967Z,19.74
2018-05-10T09:34:41.128Z,19.77
2018-05-10T09:35:40.983Z,19.74
2018-05-10T09:36:41.358Z,19.78
2018-05-10T09:37:41.017Z,19.8
2018-05-10T09:38:43.449Z,19.77
2018-05-10T09:39:41.230Z,19.78
2018-05-10T09:40:41.124Z,19.75
2018-05-10T09:41:41.026Z,19.77
2018-05-10T09:42:40.982Z,19.77
2018-05-10T09:43:41.198Z,19.78
2018-05-10T09:44:41.195Z,19.85
2018-05-10T09:45:41.151Z,19.92
2018-05-10T09:46:41.108Z,19.88
2018-05-10T09:47:41.074Z,19.88
2018-05-10T09:48:41.265Z,19.88
2018-05-10T09:49:41.064Z,19.92
2018-05-10T09:50:40.984Z,19.85
2018-05-10T09:51:41.095Z,19.88
2018-05-10T09:52:41.549Z,19.86
2018-05-10T09:53:41.337Z,19.82
2018-05-10T09:54:40.949Z,19.84
2018-05-10T09:55:41.171Z,19.88
2018-05-10T09:56:41.010Z,19.88
2018-05-10T09:57:41.410Z,19.91
2018-05-10T09:58:41.001Z,19.91
2018-05-10T09:59:41.294Z,19.91
2018-05-10T10:00:41.054Z,19.92
2018-05-10T10:01:41.190Z,19.93
2018-05-10T10:02:41.245Z,19.92
2018-05-10T10:03:40.940Z,19.92
2018-05-10T10:04:41.105Z,19.93
2018-05-10T10:05:41.014Z,19.92
2018-05-10T10:06:41.226Z,19.93
2018-05-10T10:07:41.091Z,19.93
2018-05-10T10:08:41.125Z,19.89
2018-05-10T10:09:41.054Z,19.92
2018-05-10T10:10:41.233Z,19.92
2018-05-10T10:11:41.571Z,19.91
2018-05-10T10:12:41.025Z,19.91
2018-05-10T10:13:40.994Z,19.91
2018-05-10T10:14:41.109Z,19.88
2018-05-10T10:15:20.767Z,19.95
2018-05-10T10:16:20.696Z,20.26
2018-05-10T10:17:20.955Z,20.43
2018-05-10T10:18:20.948Z,20.22
2018-05-10T10:19:20.823Z,20.16
2018-05-10T10:20:20.961Z,20.13
2018-05-10T10:21:20.815Z,20.09
2018-05-10T10:22:20.779Z,20.07
2018-05-10T10:23:20.828Z,20.05
2018-05-10T10:24:20.957Z,20.04
2018-05-10T10:25:21.692Z,20.02
2018-05-10T10:26:20.775Z,20.04
2018-05-10T10:27:21.345Z,20.01
2018-05-10T10:28:20.895Z,20.02
2018-05-10T10:29:20.759Z,20.04
2018-05-10T10:30:20.811Z,20.07
2018-05-10T10:31:20.876Z,20.04
2018-05-10T10:32:21.520Z,20.05
2018-05-10T10:33:20.915Z,20.04
2018-05-10T10:34:20.918Z,20.08
2018-05-10T10:35:20.842Z,20.07
2018-05-10T10:36:20.942Z,20.07
2018-05-10T10:37:21.223Z,20.11
2018-05-10T10:38:21.254Z,20.08
2018-05-10T10:39:20.834Z,20.09
2018-05-10T10:40:20.948Z,20.13
2018-05-10T10:41:20.663Z,20.12
2018-05-10T10:42:20.795Z,20.11
2018-05-10T10:43:20.924Z,20.15
2018-05-10T10:44:20.836Z,20.15
2018-05-10T10:45:21.308Z,20.15
2018-05-10T10:46:20.925Z,20.16
2018-05-10T10:47:20.964Z,20.13
2018-05-10T10:48:21.009Z,20.13
2018-05-10T10:49:21.048Z,20.12
2018-05-10T10:50:20.841Z,20.08
2018-05-10T10:51:20.580Z,20.09
2018-05-10T10:52:20.916Z,20.08
2018-05-10T10:53:20.922Z,20.05
2018-05-10T10:54:20.951Z,20.04
2018-05-10T10:55:20.834Z,20.04
2018-05-10T10:56:20.772Z,20.02
2018-05-10T10:57:20.971Z,19.98
2018-05-10T10:58:20.921Z,20.02
2018-05-10T10:59:20.994Z,19.98
2018-05-10T11:00:20.766Z,19.96
2018-05-10T11:01:20.871Z,19.98
2018-05-10T11:02:20.655Z,19.96
2018-05-10T11:03:21.059Z,19.95
2018-05-10T11:04:20.816Z,20.08
2018-05-10T11:05:20.735Z,20.05
2018-05-10T11:06:20.910Z,20.09
2018-05-10T11:07:20.959Z,20.09
2018-05-10T11:08:20.854Z,20.13
2018-05-10T11:09:20.845Z,20.07
2018-05-10T11:10:21.016Z,20.11
2018-05-10T11:11:21.020Z,20.08
2018-05-10T11:12:20.813Z,20.07
2018-05-10T11:13:20.829Z,20.11
2018-05-10T11:14:20.858Z,20.09
2018-05-10T11:15:20.765Z,20.08
2018-05-10T11:16:20.724Z,20.12
2018-05-10T11:17:21.028Z,20.12
2018-05-10T11:18:20.924Z,20.12
2018-05-10T11:19:20.892Z,20.15
2018-05-10T11:20:20.853Z,20.12
2018-05-10T11:21:20.817Z,20.15
2018-05-10T11:22:20.713Z,20.16
2018-05-10T11:23:20.821Z,20.15
2018-05-10T11:24:20.996Z,20.15
2018-05-10T11:25:20.837Z,20.18
2018-05-10T11:26:20.797Z,20.13
2018-05-10T11:27:21.570Z,20.16
2018-05-10T11:28:20.795Z,20.16
2018-05-10T11:29:20.820Z,20.19
2018-05-10T11:30:20.977Z,20.16
2018-05-10T11:31:20.937Z,20.19
2018-05-10T11:32:20.772Z,20.19
2018-05-10T11:33:21.948Z,20.16
2018-05-10T11:34:20.802Z,20.22
2018-05-10T11:35:21.042Z,20.2
2018-05-10T11:36:20.972Z,20.2
2018-05-10T11:37:20.938Z,20.2
2018-05-10T11:38:20.809Z,20.18
2018-05-10T11:39:20.823Z,20.19
2018-05-10T11:40:20.687Z,20.2
2018-05-10T11:41:20.726Z,20.22
2018-05-10T11:42:20.891Z,20.19
2018-05-10T11:43:20.747Z,20.22
2018-05-10T11:44:21.003Z,20.2
2018-05-10T11:45:20.699Z,20.19
2018-05-10T11:46:20.815Z,20.18
2018-05-10T11:47:20.718Z,20.2
2018-05-10T11:48:20.892Z,20.2
2018-05-10T11:49:20.880Z,20.22
2018-05-10T11:50:20.756Z,20.19
2018-05-10T11:51:20.686Z,20.19
2018-05-10T11:52:20.909Z,20.19
2018-05-10T11:53:20.781Z,20.19
2018-05-10T11:54:20.809Z,20.25
2018-05-10T11:55:20.753Z,20.25
2018-05-10T11:56:20.745Z,20.22
2018-05-10T11:57:21.130Z,20.18
2018-05-10T11:58:20.829Z,20.16
2018-05-10T11:59:20.781Z,20.11
2018-05-10T12:00:20.757Z,20.11
2018-05-10T12:01:20.904Z,20.11
2018-05-10T12:02:20.958Z,20.11
2018-05-10T12:03:20.843Z,20.05
2018-05-10T12:04:20.754Z,20.08
2018-05-10T12:05:20.778Z,20.01
2018-05-10T12:06:20.631Z,20.04
2018-05-10T12:07:20.691Z,20.04
2018-05-10T12:08:21.019Z,20.02
2018-05-10T12:09:20.835Z,20.01
2018-05-10T12:10:20.768Z,19.99
2018-05-10T12:11:20.957Z,19.98
2018-05-10T12:12:20.918Z,19.96
2018-05-10T12:13:20.655Z,20.01
2018-05-10T12:14:20.945Z,20.01
2018-05-10T12:15:20.824Z,20.01
2018-05-10T12:16:20.682Z,19.98
2018-05-10T12:17:20.754Z,19.99
2018-05-10T12:18:20.642Z,20.04
2018-05-10T12:19:20.877Z,20.05
2018-05-10T12:20:21.397Z,20.08
2018-05-10T12:21:20.616Z,20.08
2018-05-10T12:22:20.840Z,20.11
2018-05-10T12:23:20.823Z,20.08
2018-05-10T12:24:20.651Z,20.07
2018-05-10T12:25:20.618Z,20.12
2018-05-10T12:26:20.832Z,20.13
2018-05-10T12:27:20.827Z,20.13
2018-05-10T12:28:20.760Z,20.27
2018-05-10T12:29:20.860Z,20.2
2018-05-10T12:30:21.127Z,20.2
2018-05-10T12:31:20.698Z,20.16
2018-05-10T12:32:20.980Z,20.15
2018-05-10T12:33:20.816Z,20.13
2018-05-10T12:34:20.633Z,20.16
2018-05-10T12:35:20.956Z,20.16
2018-05-10T12:36:20.833Z,20.15
2018-05-10T12:37:20.919Z,20.15
2018-05-10T12:38:20.848Z,20.13
2018-05-10T12:39:20.788Z,20.13
2018-05-10T12:40:20.938Z,20.13
2018-05-10T12:41:20.828Z,20.15
2018-05-10T12:42:20.679Z,20.16
2018-05-10T12:43:20.752Z,20.15
2018-05-10T12:44:20.768Z,20.13
2018-05-10T12:45:20.775Z,20.15
2018-05-10T12:46:20.916Z,20.16
2018-05-10T12:47:20.808Z,20.19
2018-05-10T12:48:20.971Z,20.16
2018-05-10T12:49:20.957Z,20.16
2018-05-10T12:50:20.842Z,20.22
2018-05-10T12:51:20.885Z,20.2
2018-05-10T12:52:20.688Z,20.15
2018-05-10T12:53:20.900Z,20.16
2018-05-10T12:54:20.779Z,20.12
2018-05-10T12:55:21.014Z,20.09